Time;durP1;ratioP1;P1;durP2;ratioP2;P2;SDS_P1;SDS_P2;PMS_P1;PMS_P2;Temp;Humidity;BMP_temperature;BMP_pressure;BME280_temperature;BME280_humidity;BME280_pressure;Samples;Min_cycle;Max_cycle;Signal;HPM_P1;HPM_P2
2023/11/13 00:00:55;;;;;;;15.75;7.80;;;7.30;99.90;;;;;;2072800;28;20037;-77
2023/11/13 00:01:55;;;;;;;18.52;9.27;;;7.30;99.90;;;;;;2074926;28;20037;-76
2023/11/13 00:02:56;;;;;;;12.75;6.47;;;7.30;99.90;;;;;;2073365;28;20060;-76
2023/11/13 00:03:57;;;;;;;7.55;3.97;;;7.30;99.90;;;;;;2063226;28;20076;-76
2023/11/13 00:04:57;;;;;;;5.07;3.10;;;7.30;99.90;;;;;;2065829;28;20108;-77
2023/11/13 00:05:58;;;;;;;4.70;3.30;;;7.20;99.90;;;;;;2072985;28;20026;-77
2023/11/13 00:06:59;;;;;;;5.00;3.00;;;7.20;99.90;;;;;;2066504;28;20049;-75
2023/11/13 00:08:00;;;;;;;5.43;3.00;;;7.20;99.90;;;;;;2058716;28;20023;-75
2023/11/13 00:09:01;;;;;;;3.92;2.90;;;7.20;99.90;;;;;;2068271;28;20549;-76
2023/11/13 00:10:03;;;;;;;6.22;3.42;;;7.10;99.90;;;;;;2065559;28;20186;-76
2023/11/13 00:11:04;;;;;;;8.43;3.38;;;7.10;99.90;;;;;;2056080;28;20085;-77
2023/11/13 00:12:07;;;;;;;4.85;3.45;;;7.20;99.90;;;;;;2060166;28;20054;-77
2023/11/13 00:13:10;;;;;;;5.80;3.75;;;7.20;99.90;;;;;;2054082;28;20030;-78
2023/11/13 00:14:11;;;;;;;4.20;3.45;;;7.20;99.90;;;;;;2068358;28;20057;-76
2023/11/13 00:15:13;;;;;;;5.90;3.55;;;7.20;99.90;;;;;;2065955;28;20053;-76
2023/11/13 00:16:13;;;;;;;5.72;4.18;;;7.20;99.90;;;;;;2067345;28;20018;-77
2023/11/13 00:17:14;;;;;;;10.05;6.32;;;7.20;99.90;;;;;;2075431;28;20034;-76
2023/11/13 00:18:15;;;;;;;9.70;5.97;;;7.20;99.90;;;;;;2074970;28;20466;-77
2023/11/13 00:19:16;;;;;;;10.75;6.47;;;7.20;99.90;;;;;;2058964;28;20080;-76
2023/11/13 00:20:18;;;;;;;9.73;5.95;;;7.20;99.90;;;;;;2058836;28;20042;-77
2023/11/13 00:21:21;;;;;;;9.15;5.70;;;7.20;99.90;;;;;;2066438;28;20613;-77
2023/11/13 00:22:21;;;;;;;8.93;5.22;;;7.20;99.90;;;;;;2074553;28;20030;-77
2023/11/13 00:23:22;;;;;;;10.48;6.03;;;7.10;99.90;;;;;;2067446;28;20064;-78
2023/11/13 00:24:22;;;;;;;12.02;6.40;;;7.10;99.90;;;;;;2068053;28;20459;-78
2023/11/13 00:25:23;;;;;;;9.02;6.00;;;7.10;99.90;;;;;;2065996;28;20053;-77
2023/11/13 00:26:25;;;;;;;11.32;6.18;;;7.00;99.90;;;;;;2067143;28;20030;-77
2023/11/13 00:27:28;;;;;;;7.97;5.28;;;7.00;99.90;;;;;;2066330;28;20014;-77
2023/11/13 00:28:30;;;;;;;6.90;3.92;;;7.00;99.90;;;;;;2066759;28;20459;-76
2023/11/13 00:29:30;;;;;;;6.80;3.90;;;7.00;99.90;;;;;;2060375;28;20105;-77
2023/11/13 00:30:31;;;;;;;7.18;4.10;;;7.10;99.90;;;;;;2068355;28;20563;-76
2023/11/13 00:31:32;;;;;;;5.80;4.07;;;7.10;99.90;;;;;;2070334;28;20032;-76
2023/11/13 00:32:33;;;;;;;14.45;7.88;;;7.10;99.90;;;;;;2068290;28;20026;-76
2023/11/13 00:33:33;;;;;;;14.27;7.70;;;7.10;99.90;;;;;;2075699;28;20093;-75
2023/11/13 00:34:34;;;;;;;13.27;7.25;;;7.00;99.90;;;;;;2066640;28;20041;-76
2023/11/13 00:35:35;;;;;;;11.85;6.40;;;7.00;99.90;;;;;;2056226;28;20040;-77
2023/11/13 00:36:35;;;;;;;9.68;6.03;;;7.00;99.90;;;;;;2057507;28;20030;-77
2023/11/13 00:37:36;;;;;;;9.43;5.53;;;6.90;99.90;;;;;;2072738;28;20033;-77
2023/11/13 00:38:36;;;;;;;8.82;5.07;;;6.90;99.90;;;;;;2073335;28;20065;-77
2023/11/13 00:39:37;;;;;;;7.53;4.50;;;6.90;99.90;;;;;;2072870;28;20026;-77
2023/11/13 00:40:38;;;;;;;7.32;4.15;;;6.90;99.90;;;;;;2065791;28;20499;-78
2023/11/13 00:41:41;;;;;;;6.13;3.80;;;6.90;99.90;;;;;;2053707;28;20082;-77
2023/11/13 00:42:41;;;;;;;8.05;4.13;;;6.90;99.90;;;;;;2066938;28;20036;-76
2023/11/13 00:43:42;;;;;;;14.90;7.40;;;6.90;99.90;;;;;;2065851;28;20220;-77
2023/11/13 00:44:43;;;;;;;27.92;11.10;;;6.90;99.90;;;;;;2059196;28;20035;-77
2023/11/13 00:45:44;;;;;;;24.73;11.00;;;6.90;99.90;;;;;;2058398;28;20049;-77
2023/11/13 00:46:44;;;;;;;14.07;6.90;;;6.90;99.90;;;;;;2051580;28;20034;-77
2023/11/13 00:47:45;;;;;;;11.88;5.65;;;6.90;99.90;;;;;;2060029;28;20035;-76
2023/11/13 00:48:47;;;;;;;11.55;5.88;;;6.80;99.90;;;;;;2067492;28;20052;-75
2023/11/13 00:49:47;;;;;;;10.20;5.13;;;6.70;99.90;;;;;;2065290;28;20033;-76
2023/11/13 00:50:48;;;;;;;10.90;4.80;;;6.70;99.90;;;;;;2066765;28;20030;-77
2023/11/13 00:51:48;;;;;;;8.77;4.97;;;6.60;99.90;;;;;;2075304;28;20364;-77
2023/11/13 00:52:51;;;;;;;8.68;4.75;;;6.60;99.90;;;;;;2075257;28;20387;-77
2023/11/13 00:53:52;;;;;;;9.65;4.90;;;6.60;99.90;;;;;;2066946;28;20026;-77
2023/11/13 00:54:53;;;;;;;8.82;4.30;;;6.50;99.90;;;;;;2066076;28;20105;-78
2023/11/13 00:55:54;;;;;;;7.68;4.82;;;6.50;99.90;;;;;;2064109;28;20026;-77
2023/11/13 00:56:54;;;;;;;6.60;3.90;;;6.40;99.90;;;;;;2070449;28;20503;-78
2023/11/13 00:57:55;;;;;;;5.82;3.83;;;6.40;99.90;;;;;;2073148;28;20483;-77
2023/11/13 00:58:56;;;;;;;5.90;3.80;;;6.40;99.90;;;;;;2071544;28;20029;-77
2023/11/13 00:59:56;;;;;;;7.30;3.92;;;6.40;99.90;;;;;;2059836;28;20117;-76
2023/11/13 01:00:57;;;;;;;8.43;4.20;;;6.40;99.90;;;;;;2050218;28;20538;-76
2023/11/13 01:02:00;;;;;;;8.40;4.97;;;6.40;99.90;;;;;;2064058;28;20471;-77
2023/11/13 01:03:02;;;;;;;8.65;5.10;;;6.40;99.90;;;;;;2075466;28;20183;-77
2023/11/13 01:04:03;;;;;;;7.13;4.93;;;6.40;99.90;;;;;;2066251;28;20332;-77
2023/11/13 01:05:04;;;;;;;8.45;4.80;;;6.40;99.90;;;;;;2071757;28;20104;-76
2023/11/13 01:06:04;;;;;;;7.43;4.60;;;6.30;99.90;;;;;;2058373;28;20083;-77
2023/11/13 01:07:05;;;;;;;7.72;4.70;;;6.40;99.90;;;;;;2048139;28;20030;-76
2023/11/13 01:08:05;;;;;;;8.05;4.68;;;6.40;99.90;;;;;;2060303;28;20018;-77
2023/11/13 01:09:06;;;;;;;8.73;5.05;;;6.40;99.90;;;;;;2064991;28;20475;-77
2023/11/13 01:10:07;;;;;;;9.30;5.75;;;6.30;99.90;;;;;;2073841;28;20029;-76
2023/11/13 01:11:08;;;;;;;8.10;4.60;;;6.30;99.90;;;;;;2076386;28;20510;-77
2023/11/13 01:12:09;;;;;;;8.30;4.57;;;6.20;99.90;;;;;;2059060;28;20041;-77
2023/11/13 01:13:10;;;;;;;7.13;4.25;;;6.20;99.90;;;;;;2050860;28;20027;-77
2023/11/13 01:14:10;;;;;;;8.85;4.40;;;6.30;99.90;;;;;;2067630;28;20115;-77
2023/11/13 01:15:12;;;;;;;6.80;4.00;;;6.30;99.90;;;;;;2075914;28;20039;-77
2023/11/13 01:16:12;;;;;;;7.55;3.80;;;6.20;99.90;;;;;;2075179;28;20116;-77
2023/11/13 01:17:13;;;;;;;7.70;3.95;;;6.30;99.90;;;;;;2075192;28;20034;-77
2023/11/13 01:18:17;;;;;;;7.90;4.00;;;6.30;99.90;;;;;;2074661;28;20017;-78
2023/11/13 01:19:18;;;;;;;6.05;3.85;;;6.30;99.90;;;;;;2075042;28;20021;-76
2023/11/13 01:20:19;;;;;;;6.55;3.70;;;6.30;99.90;;;;;;2065950;28;20103;-77
2023/11/13 01:21:23;;;;;;;7.20;4.03;;;6.40;99.90;;;;;;2057389;28;20033;-77
2023/11/13 01:22:24;;;;;;;6.95;4.05;;;6.40;99.90;;;;;;2066559;28;20018;-78
2023/11/13 01:23:24;;;;;;;8.57;4.40;;;6.30;99.90;;;;;;2075429;28;20397;-76
2023/11/13 01:24:25;;;;;;;5.53;4.18;;;6.30;99.90;;;;;;2075768;28;20643;-77
2023/11/13 01:25:26;;;;;;;6.78;4.35;;;6.30;99.90;;;;;;2059708;28;20041;-78
2023/11/13 01:26:26;;;;;;;7.93;4.25;;;6.30;99.90;;;;;;2058185;28;20037;-77
2023/11/13 01:27:27;;;;;;;7.63;4.20;;;6.40;99.90;;;;;;2067435;28;20096;-79
2023/11/13 01:28:27;;;;;;;8.57;4.00;;;6.40;99.90;;;;;;2065040;28;20049;-78
2023/11/13 01:29:28;;;;;;;7.70;4.30;;;6.40;99.90;;;;;;2067155;28;20036;-76
2023/11/13 01:30:29;;;;;;;6.85;4.25;;;6.50;99.90;;;;;;2067918;28;20025;-77
2023/11/13 01:31:31;;;;;;;7.68;4.30;;;6.50;99.90;;;;;;2061890;28;20030;-77
2023/11/13 01:32:31;;;;;;;5.80;4.00;;;6.60;99.90;;;;;;2055579;28;20397;-77
2023/11/13 01:33:32;;;;;;;5.47;4.03;;;6.60;99.90;;;;;;2064749;28;20038;-76
2023/11/13 01:34:33;;;;;;;6.95;4.22;;;6.60;99.90;;;;;;2068231;28;20060;-78
2023/11/13 01:35:33;;;;;;;7.07;3.80;;;6.60;99.90;;;;;;2064541;28;20044;-77
2023/11/13 01:36:34;;;;;;;6.53;3.95;;;6.60;99.90;;;;;;2066417;28;20022;-77
2023/11/13 01:37:35;;;;;;;6.93;4.00;;;6.60;99.90;;;;;;2065328;28;20495;-76
2023/11/13 01:38:36;;;;;;;5.28;3.70;;;6.60;99.90;;;;;;2056180;28;20096;-75
2023/11/13 01:39:36;;;;;;;5.22;3.70;;;6.60;99.90;;;;;;2066987;28;20040;-75
2023/11/13 01:40:41;;;;;;;6.53;3.95;;;6.60;99.90;;;;;;2068232;28;20440;-75
2023/11/13 01:41:42;;;;;;;5.22;3.63;;;6.60;99.90;;;;;;2065254;28;20124;-76
2023/11/13 01:42:43;;;;;;;5.82;3.75;;;6.60;99.90;;;;;;2069006;28;20044;-76
2023/11/13 01:43:43;;;;;;;5.32;3.75;;;6.60;99.90;;;;;;2067183;28;20048;-77
2023/11/13 01:44:44;;;;;;;6.38;3.42;;;6.60;99.90;;;;;;2066874;28;20037;-78
2023/11/13 01:45:44;;;;;;;5.38;3.20;;;6.60;99.90;;;;;;2055532;28;20038;-76
2023/11/13 01:46:45;;;;;;;5.13;3.10;;;6.60;99.90;;;;;;2058581;28;20045;-76
2023/11/13 01:47:46;;;;;;;7.13;3.30;;;6.60;99.90;;;;;;2059075;28;20027;-76
2023/11/13 01:48:48;;;;;;;5.43;3.20;;;6.60;99.90;;;;;;2049841;28;20090;-76
2023/11/13 01:49:48;;;;;;;4.50;3.13;;;6.60;99.90;;;;;;2057064;28;20539;-76
2023/11/13 01:50:50;;;;;;;4.78;2.92;;;6.60;99.90;;;;;;2065174;28;20032;-77
2023/11/13 01:51:52;;;;;;;4.43;3.20;;;6.60;99.90;;;;;;2066086;28;20048;-77
2023/11/13 01:52:53;;;;;;;4.72;3.05;;;6.60;99.90;;;;;;2066851;28;20116;-76
2023/11/13 01:53:56;;;;;;;7.38;3.38;;;6.60;99.90;;;;;;2065464;28;20026;-77
2023/11/13 01:54:58;;;;;;;4.97;3.10;;;6.60;99.90;;;;;;2066283;28;20121;-77
2023/11/13 01:55:59;;;;;;;5.60;3.08;;;6.60;99.90;;;;;;2057487;28;20026;-77
2023/11/13 01:57:03;;;;;;;4.53;3.10;;;6.60;99.90;;;;;;2065016;28;20208;-77
2023/11/13 01:58:04;;;;;;;4.05;3.10;;;6.60;99.90;;;;;;2063842;28;20049;-77
2023/11/13 01:59:08;;;;;;;4.30;3.30;;;6.60;99.90;;;;;;2060409;28;20038;-77
2023/11/13 02:00:10;;;;;;;5.60;3.45;;;6.60;99.90;;;;;;2054762;28;20191;-77
2023/11/13 02:01:17;;;;;;;5.28;3.47;;;6.60;99.90;;;;;;2059832;28;20034;-77
2023/11/13 02:02:18;;;;;;;3.30;2.90;;;6.60;99.90;;;;;;2063308;28;20073;-77
2023/11/13 02:03:20;;;;;;;5.38;3.20;;;6.60;99.90;;;;;;2065459;28;20542;-78
2023/11/13 02:04:21;;;;;;;5.28;3.50;;;6.60;99.90;;;;;;2049528;28;20062;-77
2023/11/13 02:05:22;;;;;;;4.50;3.08;;;6.60;99.90;;;;;;2053961;28;20026;-76
2023/11/13 02:06:23;;;;;;;3.65;2.83;;;6.60;99.90;;;;;;2071856;28;20026;-76
2023/11/13 02:07:23;;;;;;;4.30;3.30;;;6.60;99.90;;;;;;2066813;28;20503;-77
2023/11/13 02:08:24;;;;;;;5.45;3.45;;;6.60;99.90;;;;;;2066446;28;20519;-76
2023/11/13 02:09:25;;;;;;;4.05;3.25;;;6.60;99.90;;;;;;2068711;28;20034;-77
2023/11/13 02:10:28;;;;;;;5.45;3.60;;;6.60;99.90;;;;;;2058936;28;20763;-76
2023/11/13 02:11:33;;;;;;;4.95;3.40;;;6.60;99.90;;;;;;2051602;28;20041;-76
2023/11/13 02:12:34;;;;;;;5.07;3.80;;;6.60;99.90;;;;;;2057127;28;20512;-76
2023/11/13 02:13:35;;;;;;;5.43;3.80;;;6.60;99.90;;;;;;2068405;28;20056;-77
2023/11/13 02:14:37;;;;;;;6.95;3.88;;;6.50;99.90;;;;;;2062286;28;20056;-76
2023/11/13 02:15:40;;;;;;;6.85;4.07;;;6.50;99.90;;;;;;2056329;28;20030;-75
2023/11/13 02:16:41;;;;;;;5.40;3.65;;;6.50;99.90;;;;;;2066335;28;20506;-76
2023/11/13 02:18:01;;;;;;;4.95;3.72;;;6.50;99.90;;;;;;2066853;28;20316;-76
2023/11/13 02:19:02;;;;;;;6.65;3.88;;;6.50;99.90;;;;;;2065897;28;20045;-77
2023/11/13 02:20:03;;;;;;;6.90;3.45;;;6.50;99.90;;;;;;2067495;28;20121;-76
2023/11/13 02:21:04;;;;;;;5.63;3.92;;;6.60;99.90;;;;;;2065411;28;20471;-77
2023/11/13 02:22:06;;;;;;;4.82;3.30;;;6.50;99.90;;;;;;2060818;28;20412;-78
2023/11/13 02:23:07;;;;;;;6.22;3.80;;;6.50;99.90;;;;;;2065720;28;20451;-78
2023/11/13 02:24:09;;;;;;;5.80;3.47;;;6.50;99.90;;;;;;2059216;28;20116;-78
2023/11/13 02:25:13;;;;;;;6.22;3.78;;;6.50;99.90;;;;;;2050162;28;20409;-77
2023/11/13 02:26:14;;;;;;;6.18;3.80;;;6.50;99.90;;;;;;2049568;28;20111;-76
2023/11/13 02:27:16;;;;;;;5.50;3.53;;;6.50;99.90;;;;;;2068302;28;20021;-76
2023/11/13 02:28:17;;;;;;;7.97;4.00;;;6.50;99.90;;;;;;2065702;28;20426;-76
2023/11/13 02:29:18;;;;;;;6.35;3.67;;;6.50;99.90;;;;;;2062728;28;20103;-77
2023/11/13 02:30:20;;;;;;;5.22;3.88;;;6.50;99.90;;;;;;2068407;28;20030;-76
2023/11/13 02:31:21;;;;;;;6.28;4.07;;;6.50;99.90;;;;;;2068049;28;20045;-77
2023/11/13 02:32:23;;;;;;;5.78;3.60;;;6.50;99.90;;;;;;2066394;28;20503;-77
2023/11/13 02:33:24;;;;;;;6.13;3.80;;;6.50;99.90;;;;;;2064516;28;20073;-77
2023/11/13 02:34:24;;;;;;;6.95;4.03;;;6.50;99.90;;;;;;2067766;28;20026;-77
2023/11/13 02:35:25;;;;;;;6.18;3.83;;;6.50;99.90;;;;;;2049362;28;20122;-77
2023/11/13 02:36:25;;;;;;;7.10;4.15;;;6.50;99.90;;;;;;2049010;28;20031;-75
2023/11/13 02:37:26;;;;;;;5.57;3.80;;;6.50;99.90;;;;;;2068508;28;20117;-76
2023/11/13 02:38:27;;;;;;;6.60;3.75;;;6.50;99.90;;;;;;2069599;28;20385;-76
2023/11/13 02:39:27;;;;;;;8.82;4.70;;;6.50;99.90;;;;;;2063243;28;20896;-76
2023/11/13 02:40:28;;;;;;;10.15;4.85;;;6.50;99.90;;;;;;2057926;28;20061;-77
2023/11/13 02:41:29;;;;;;;7.78;4.63;;;6.50;99.90;;;;;;2057659;28;20117;-75
2023/11/13 02:42:34;;;;;;;11.05;4.75;;;6.50;99.90;;;;;;2058115;28;20027;-75
2023/11/13 02:43:35;;;;;;;11.00;5.32;;;6.50;99.90;;;;;;2058181;28;20607;-76
2023/11/13 02:44:35;;;;;;;8.63;4.93;;;6.50;99.90;;;;;;2061649;28;20033;-76
2023/11/13 02:45:36;;;;;;;9.50;4.50;;;6.40;99.90;;;;;;2073896;28;20025;-76
2023/11/13 02:46:37;;;;;;;4.72;3.42;;;6.40;99.90;;;;;;2069762;28;20053;-76
2023/11/13 02:47:38;;;;;;;5.70;3.85;;;6.40;99.90;;;;;;2066433;28;20432;-77
2023/11/13 02:48:39;;;;;;;9.30;4.93;;;6.40;99.90;;;;;;2063434;28;20447;-76
2023/11/13 02:49:39;;;;;;;15.52;5.85;;;6.40;99.90;;;;;;2067517;28;20061;-76
2023/11/13 02:50:40;;;;;;;21.45;8.35;;;6.40;99.90;;;;;;2070992;28;20037;-76
2023/11/13 02:51:41;;;;;;;21.67;8.05;;;6.40;99.90;;;;;;2068364;28;20034;-77
2023/11/13 02:52:42;;;;;;;15.30;6.80;;;6.50;99.90;;;;;;2070286;28;20022;-77
2023/11/13 02:53:43;;;;;;;12.63;6.30;;;6.50;99.90;;;;;;2071255;28;20029;-77
2023/11/13 02:54:43;;;;;;;17.73;6.88;;;6.50;99.90;;;;;;2059639;28;20177;-76
2023/11/13 02:55:44;;;;;;;17.15;7.18;;;6.50;99.90;;;;;;2060022;28;20030;-76
2023/11/13 02:56:44;;;;;;;11.95;5.68;;;6.40;99.90;;;;;;2063318;28;20272;-78
2023/11/13 02:57:45;;;;;;;12.07;5.00;;;6.40;99.90;;;;;;2063471;28;20113;-77
2023/11/13 02:58:47;;;;;;;29.13;9.65;;;6.40;99.90;;;;;;2060402;28;20044;-77
2023/11/13 02:59:47;;;;;;;21.30;8.10;;;6.40;99.90;;;;;;2070712;28;20104;-77
2023/11/13 03:00:48;;;;;;;12.88;5.75;;;6.40;99.90;;;;;;2069204;28;20096;-76
2023/11/13 03:01:49;;;;;;;12.82;5.72;;;6.40;99.90;;;;;;2068814;28;20079;-77
2023/11/13 03:02:49;;;;;;;12.73;5.68;;;6.30;99.90;;;;;;2069790;28;20092;-77
2023/11/13 03:03:50;;;;;;;9.35;4.70;;;6.30;99.90;;;;;;2071642;28;20134;-77
2023/11/13 03:04:51;;;;;;;10.82;5.00;;;6.30;99.90;;;;;;2063052;28;20116;-76
2023/11/13 03:05:52;;;;;;;18.13;7.32;;;6.30;99.90;;;;;;2058136;28;20022;-77
2023/11/13 03:06:52;;;;;;;31.52;10.13;;;6.30;99.90;;;;;;2078120;28;20029;-77
2023/11/13 03:07:53;;;;;;;32.78;10.93;;;6.20;99.90;;;;;;2071971;28;20112;-77
2023/11/13 03:08:53;;;;;;;32.80;10.70;;;6.20;99.90;;;;;;2059940;28;20539;-77
2023/11/13 03:09:54;;;;;;;19.50;7.40;;;6.20;99.90;;;;;;2051753;28;20037;-77
2023/11/13 03:10:55;;;;;;;13.32;5.28;;;6.20;99.90;;;;;;2061059;28;20041;-78
2023/11/13 03:11:57;;;;;;;13.13;5.65;;;6.20;99.90;;;;;;2069677;28;20439;-77
2023/11/13 03:12:58;;;;;;;17.30;6.88;;;6.20;99.90;;;;;;2068353;28;20656;-77
2023/11/13 03:13:59;;;;;;;18.02;6.70;;;6.20;99.90;;;;;;2071519;28;20507;-77
2023/11/13 03:15:00;;;;;;;20.30;7.47;;;6.20;99.90;;;;;;2069387;28;20572;-76
2023/11/13 03:16:01;;;;;;;21.25;7.68;;;6.20;99.90;;;;;;2063486;28;20042;-77
2023/11/13 03:17:02;;;;;;;20.00;7.20;;;6.20;99.90;;;;;;2060405;28;20022;-75
2023/11/13 03:18:03;;;;;;;16.38;6.47;;;6.20;99.90;;;;;;2071716;28;20057;-77
2023/11/13 03:19:04;;;;;;;15.48;5.95;;;6.20;99.90;;;;;;2068698;28;20049;-77
2023/11/13 03:20:06;;;;;;;17.20;6.93;;;6.10;99.90;;;;;;2070710;28;20029;-76
2023/11/13 03:21:08;;;;;;;16.67;6.00;;;6.10;99.90;;;;;;2068006;28;20089;-77
2023/11/13 03:22:10;;;;;;;12.05;5.40;;;6.00;99.90;;;;;;2063184;28;20208;-77
2023/11/13 03:23:12;;;;;;;10.95;5.18;;;6.10;99.90;;;;;;2071741;28;20177;-76
2023/11/13 03:24:13;;;;;;;7.13;4.32;;;6.00;99.90;;;;;;2068267;28;20022;-77
2023/11/13 03:25:14;;;;;;;8.60;4.15;;;6.00;99.90;;;;;;2071188;28;20280;-77
2023/11/13 03:26:17;;;;;;;9.80;4.22;;;6.00;99.90;;;;;;2069104;28;20026;-77
2023/11/13 03:27:18;;;;;;;8.48;4.30;;;6.00;99.90;;;;;;2076301;28;20434;-78
2023/11/13 03:28:18;;;;;;;10.05;4.60;;;6.00;99.90;;;;;;2068538;28;20017;-77
2023/11/13 03:29:19;;;;;;;13.40;5.80;;;6.00;99.90;;;;;;2075791;28;20037;-77
2023/11/13 03:30:20;;;;;;;13.15;5.45;;;6.00;99.90;;;;;;2069160;28;20057;-77
2023/11/13 03:31:20;;;;;;;8.90;4.55;;;6.00;99.90;;;;;;2061793;28;20050;-77
2023/11/13 03:32:21;;;;;;;7.97;4.00;;;6.00;99.90;;;;;;2071438;28;20638;-75
2023/11/13 03:33:21;;;;;;;10.40;4.00;;;6.00;99.90;;;;;;2065735;28;20022;-77
2023/11/13 03:34:22;;;;;;;8.15;4.30;;;6.00;99.90;;;;;;2075430;28;20121;-79
2023/11/13 03:35:23;;;;;;;8.45;4.40;;;6.10;99.90;;;;;;2077149;28;20606;-78
2023/11/13 03:36:23;;;;;;;9.18;4.70;;;6.10;99.90;;;;;;2077725;28;20021;-76
2023/11/13 03:37:24;;;;;;;9.10;4.65;;;6.10;99.90;;;;;;2068587;28;20506;-76
2023/11/13 03:38:25;;;;;;;9.55;4.80;;;6.10;99.90;;;;;;2063044;28;20128;-75
2023/11/13 03:39:26;;;;;;;7.85;4.47;;;6.10;99.90;;;;;;2069101;28;20041;-77
2023/11/13 03:40:27;;;;;;;8.25;4.30;;;6.10;99.90;;;;;;2068940;28;20029;-75
2023/11/13 03:41:27;;;;;;;10.13;4.80;;;6.20;99.90;;;;;;2079500;28;20507;-76
2023/11/13 03:42:28;;;;;;;9.20;4.95;;;6.20;99.90;;;;;;2069529;28;20029;-76
2023/11/13 03:43:29;;;;;;;9.98;4.55;;;6.20;99.90;;;;;;2068785;28;20084;-76
2023/11/13 03:44:30;;;;;;;15.32;6.07;;;6.10;99.90;;;;;;2068074;28;20084;-78
2023/11/13 03:45:31;;;;;;;28.35;8.65;;;6.20;99.90;;;;;;2068049;28;20468;-76
2023/11/13 03:46:32;;;;;;;29.83;8.65;;;6.20;99.90;;;;;;2068085;28;20037;-78
2023/11/13 03:47:32;;;;;;;34.97;10.85;;;6.20;99.90;;;;;;2060145;28;20130;-75
2023/11/13 03:48:34;;;;;;;45.60;12.15;;;6.20;99.90;;;;;;2071041;28;20448;-76
2023/11/13 03:49:35;;;;;;;35.60;10.20;;;6.10;99.90;;;;;;2067940;28;20037;-77
2023/11/13 03:50:35;;;;;;;31.92;10.32;;;6.10;99.90;;;;;;2058949;28;20034;-77
2023/11/13 03:51:36;;;;;;;51.47;14.98;;;6.10;99.90;;;;;;2058823;28;20042;-77
2023/11/13 03:52:36;;;;;;;58.83;18.08;;;6.10;99.90;;;;;;2067032;28;20026;-76
2023/11/13 03:53:37;;;;;;;52.78;17.50;;;6.10;99.90;;;;;;2071036;28;20030;-76
2023/11/13 03:54:38;;;;;;;46.67;15.02;;;6.10;99.90;;;;;;2068461;28;20510;-77
2023/11/13 03:55:38;;;;;;;32.10;11.23;;;6.10;99.90;;;;;;2070828;28;20036;-76
2023/11/13 03:56:40;;;;;;;27.67;9.73;;;6.10;99.90;;;;;;2070618;28;20025;-77
2023/11/13 03:57:40;;;;;;;17.15;7.45;;;6.10;99.90;;;;;;2067053;28;20861;-76
2023/11/13 03:58:41;;;;;;;11.25;4.97;;;6.10;99.90;;;;;;2071110;28;20026;-77
2023/11/13 03:59:43;;;;;;;21.98;9.10;;;6.10;99.90;;;;;;2069069;28;20075;-76
2023/11/13 04:00:43;;;;;;;24.63;10.05;;;6.00;99.90;;;;;;2066985;28;20106;-76
2023/11/13 04:01:47;;;;;;;19.67;8.02;;;6.00;99.90;;;;;;2071630;28;20041;-76
2023/11/13 04:02:48;;;;;;;16.67;7.07;;;6.00;99.90;;;;;;2069621;28;20036;-76
2023/11/13 04:03:49;;;;;;;14.52;6.85;;;5.90;99.90;;;;;;2051604;28;20027;-76
2023/11/13 04:04:50;;;;;;;12.77;6.03;;;5.90;99.90;;;;;;2061366;28;20026;-75
2023/11/13 04:05:51;;;;;;;8.07;4.18;;;5.80;99.90;;;;;;2067411;28;20439;-76
2023/11/13 04:06:52;;;;;;;5.57;3.80;;;5.90;99.90;;;;;;2059771;28;20485;-78
2023/11/13 04:07:55;;;;;;;6.22;3.70;;;5.90;99.90;;;;;;2061613;28;20026;-75
2023/11/13 04:08:56;;;;;;;11.25;5.60;;;5.90;99.90;;;;;;2070676;28;20484;-76
2023/11/13 04:09:58;;;;;;;9.13;5.25;;;5.90;99.90;;;;;;2068982;28;20492;-76
2023/11/13 04:10:59;;;;;;;14.27;6.93;;;5.90;99.90;;;;;;2060424;28;20074;-76
2023/11/13 04:12:02;;;;;;;12.85;7.40;;;5.90;99.90;;;;;;2070916;28;20958;-76
2023/11/13 04:13:03;;;;;;;12.27;5.70;;;5.90;99.90;;;;;;2069510;28;20030;-76
2023/11/13 04:14:03;;;;;;;6.35;4.10;;;6.00;99.90;;;;;;2059986;28;20053;-77
2023/11/13 04:15:08;;;;;;;9.10;4.40;;;5.90;99.90;;;;;;2062941;28;20298;-76
2023/11/13 04:16:08;;;;;;;8.07;3.95;;;5.90;99.90;;;;;;2058476;28;20030;-76
2023/11/13 04:17:09;;;;;;;10.60;4.80;;;5.90;99.90;;;;;;2050963;28;20053;-78
2023/11/13 04:18:10;;;;;;;8.95;4.30;;;5.90;99.90;;;;;;2062469;28;20027;-76
2023/11/13 04:19:10;;;;;;;7.70;4.40;;;5.90;99.90;;;;;;2070524;28;20313;-77
2023/11/13 04:20:14;;;;;;;7.22;4.20;;;5.90;99.90;;;;;;2066784;28;20068;-76
2023/11/13 04:21:15;;;;;;;8.75;4.80;;;5.90;99.90;;;;;;2063317;28;20026;-76
2023/11/13 04:22:16;;;;;;;13.02;6.72;;;5.90;99.90;;;;;;2067983;28;20026;-75
2023/11/13 04:23:16;;;;;;;15.43;7.65;;;5.80;99.90;;;;;;2070321;28;20126;-76
2023/11/13 04:24:17;;;;;;;7.82;4.97;;;5.80;99.90;;;;;;2067432;28;20122;-76
2023/11/13 04:25:18;;;;;;;10.40;5.50;;;5.80;99.90;;;;;;2070358;28;20036;-76
2023/11/13 04:26:18;;;;;;;10.10;5.47;;;5.80;99.90;;;;;;2071802;28;20500;-76
2023/11/13 04:27:19;;;;;;;8.73;5.40;;;5.70;99.90;;;;;;2068029;28;20022;-77
2023/11/13 04:28:20;;;;;;;14.70;7.53;;;5.70;99.90;;;;;;2055705;28;20023;-76
2023/11/13 04:29:21;;;;;;;11.93;6.80;;;5.60;99.90;;;;;;2062719;28;20057;-77
2023/11/13 04:30:22;;;;;;;12.38;7.03;;;5.60;99.90;;;;;;2059430;28;20070;-77
2023/11/13 04:31:23;;;;;;;13.00;6.28;;;5.60;99.90;;;;;;2053260;28;20169;-76
2023/11/13 04:32:24;;;;;;;11.35;6.43;;;5.50;99.90;;;;;;2063403;28;20289;-75
2023/11/13 04:33:25;;;;;;;10.80;6.25;;;5.50;99.90;;;;;;2069240;28;20096;-77
2023/11/13 04:34:25;;;;;;;8.98;5.32;;;5.50;99.90;;;;;;2068301;28;20448;-77
2023/11/13 04:35:26;;;;;;;10.52;5.80;;;5.40;99.90;;;;;;2069611;28;20029;-76
2023/11/13 04:36:27;;;;;;;13.25;6.50;;;5.40;99.90;;;;;;2071625;28;20496;-76
2023/11/13 04:37:27;;;;;;;12.45;6.53;;;5.40;99.90;;;;;;2068254;28;20107;-77
2023/11/13 04:38:28;;;;;;;12.68;6.60;;;5.30;99.90;;;;;;2069001;28;20076;-77
2023/11/13 04:39:28;;;;;;;11.65;6.32;;;5.20;99.90;;;;;;2071365;28;20072;-76
2023/11/13 04:40:29;;;;;;;12.25;6.22;;;5.20;99.90;;;;;;2068490;28;20113;-77
2023/11/13 04:41:30;;;;;;;11.98;6.85;;;5.20;99.90;;;;;;2068515;28;20478;-76
2023/11/13 04:42:31;;;;;;;10.18;5.70;;;5.20;99.90;;;;;;2071416;28;20095;-76
2023/11/13 04:43:32;;;;;;;13.95;6.35;;;5.20;99.90;;;;;;2068681;28;20144;-78
2023/11/13 04:44:32;;;;;;;8.35;5.20;;;5.20;99.90;;;;;;2062615;28;20485;-76
2023/11/13 04:45:34;;;;;;;8.90;5.72;;;5.20;99.90;;;;;;2060176;28;20062;-77
2023/11/13 04:46:35;;;;;;;9.45;5.40;;;5.10;99.90;;;;;;2066827;28;20526;-77
2023/11/13 04:47:36;;;;;;;8.82;5.70;;;5.10;99.90;;;;;;2070380;28;20032;-76
2023/11/13 04:48:40;;;;;;;8.80;6.05;;;5.10;99.90;;;;;;2069599;28;20045;-76
2023/11/13 04:49:40;;;;;;;9.23;6.43;;;5.10;99.90;;;;;;2066906;28;20076;-77
2023/11/13 04:50:41;;;;;;;10.90;6.18;;;5.00;99.90;;;;;;2066819;28;20033;-76
2023/11/13 04:51:42;;;;;;;7.95;5.30;;;5.10;99.90;;;;;;2066629;28;20532;-76
2023/11/13 04:52:44;;;;;;;8.27;5.50;;;5.10;99.90;;;;;;2066374;28;20041;-75
2023/11/13 04:53:44;;;;;;;8.00;5.40;;;5.00;99.90;;;;;;2070599;28;20041;-76
2023/11/13 04:54:45;;;;;;;8.32;5.32;;;5.00;99.90;;;;;;2070462;28;20112;-76
2023/11/13 04:55:46;;;;;;;8.27;5.10;;;5.00;99.90;;;;;;2066915;28;20038;-76
2023/11/13 04:56:47;;;;;;;9.98;5.50;;;5.00;99.90;;;;;;2062753;28;20524;-75
2023/11/13 04:57:47;;;;;;;7.55;5.30;;;5.00;99.90;;;;;;2071244;28;20118;-76
2023/11/13 04:58:48;;;;;;;7.97;5.60;;;5.00;99.90;;;;;;2067814;28;20037;-78
2023/11/13 04:59:49;;;;;;;7.32;5.35;;;5.00;99.90;;;;;;2069737;28;20041;-77
2023/11/13 05:00:50;;;;;;;9.15;5.63;;;4.90;99.90;;;;;;2077070;28;20033;-78
2023/11/13 05:01:51;;;;;;;7.22;5.28;;;5.00;99.90;;;;;;2069061;28;20112;-79
2023/11/13 05:02:52;;;;;;;11.05;5.72;;;4.90;99.90;;;;;;2059590;28;20487;-77
2023/11/13 05:03:52;;;;;;;9.45;5.70;;;4.90;99.90;;;;;;2069648;28;20113;-77
2023/11/13 05:04:53;;;;;;;9.13;5.40;;;4.90;99.90;;;;;;2067670;28;20353;-77
2023/11/13 05:05:54;;;;;;;8.30;5.50;;;4.90;99.90;;;;;;2063877;28;20030;-77
2023/11/13 05:06:55;;;;;;;8.50;5.20;;;4.90;99.90;;;;;;2067030;28;20033;-77
2023/11/13 05:07:55;;;;;;;9.73;5.30;;;4.90;99.90;;;;;;2065312;28;20045;-78
2023/11/13 05:08:56;;;;;;;10.13;5.60;;;4.90;99.90;;;;;;2069656;28;20029;-76
2023/11/13 05:09:57;;;;;;;9.13;5.50;;;4.90;99.90;;;;;;2062697;28;20165;-76
2023/11/13 05:10:57;;;;;;;7.70;5.20;;;4.90;99.90;;;;;;2063203;28;20088;-78
2023/11/13 05:11:58;;;;;;;10.52;5.88;;;4.90;99.90;;;;;;2063059;28;20030;-77
2023/11/13 05:12:59;;;;;;;8.20;5.32;;;5.00;99.90;;;;;;2061417;28;20130;-78
2023/11/13 05:14:00;;;;;;;10.73;5.30;;;4.90;99.90;;;;;;2062468;28;20030;-78
2023/11/13 05:15:01;;;;;;;8.90;5.47;;;5.00;99.90;;;;;;2064796;28;20023;-80
2023/11/13 05:16:01;;;;;;;12.25;5.70;;;5.00;99.90;;;;;;2066653;28;20515;-77
2023/11/13 05:17:02;;;;;;;8.63;5.32;;;5.00;99.90;;;;;;2068431;28;20400;-77
2023/11/13 05:18:06;;;;;;;8.88;6.07;;;4.90;99.90;;;;;;2068078;28;20061;-77
2023/11/13 05:19:07;;;;;;;8.73;5.97;;;4.90;99.90;;;;;;2069993;28;20048;-79
2023/11/13 05:20:08;;;;;;;10.30;5.90;;;5.00;99.90;;;;;;2070061;28;20039;-77
2023/11/13 05:21:09;;;;;;;7.57;5.40;;;5.00;99.90;;;;;;2059126;28;20027;-77